sensor_id;sensor_type;location;lat;lon;timestamp;P1;P4;P2;P0;N10;N4;N25;N1;N05;TS
66101;SPS30;52883;51.094;5.880;2023-02-04T00:00:55;1.35;1.30;1.08;0.76;6.09;6.08;6.02;5.73;4.67;0.77
66101;SPS30;52883;51.094;5.880;2023-02-04T00:03:21;1.84;1.77;1.44;0.98;7.87;7.86;7.77;7.34;5.92;0.79
66101;SPS30;52883;51.094;5.880;2023-02-04T00:05:46;1.67;1.61;1.29;0.85;6.83;6.81;6.73;6.32;5.04;0.81
66101;SPS30;52883;51.094;5.880;2023-02-04T00:08:12;2.07;1.99;1.57;1.00;8.09;8.07;7.96;7.43;5.86;0.82
66101;SPS30;52883;51.094;5.880;2023-02-04T00:10:38;1.65;1.58;1.25;0.79;6.37;6.36;6.27;5.84;4.60;0.82
66101;SPS30;52883;51.094;5.880;2023-02-04T00:13:04;1.82;1.75;1.37;0.84;6.82;6.81;6.71;6.22;4.85;0.83
66101;SPS30;52883;51.094;5.880;2023-02-04T00:15:30;1.76;1.68;1.32;0.82;6.61;6.60;6.50;6.03;4.72;0.84
66101;SPS30;52883;51.094;5.880;2023-02-04T00:17:55;1.79;1.72;1.35;0.84;6.82;6.80;6.71;6.23;4.89;0.82
66101;SPS30;52883;51.094;5.880;2023-02-04T00:20:21;1.77;1.69;1.32;0.81;6.53;6.51;6.41;5.93;4.62;0.83
66101;SPS30;52883;51.094;5.880;2023-02-04T00:22:47;1.76;1.68;1.30;0.79;6.38;6.37;6.27;5.78;4.48;0.84
66101;SPS30;52883;51.094;5.880;2023-02-04T00:25:13;1.84;1.77;1.38;0.85;6.86;6.84;6.75;6.25;4.87;0.83
66101;SPS30;52883;51.094;5.880;2023-02-04T00:27:39;1.52;1.46;1.14;0.71;5.72;5.71;5.63;5.22;4.08;0.84
66101;SPS30;52883;51.094;5.880;2023-02-04T00:30:05;1.81;1.73;1.34;0.82;6.63;6.61;6.52;6.02;4.67;0.85
66101;SPS30;52883;51.094;5.880;2023-02-04T00:32:32;1.66;1.59;1.23;0.73;5.92;5.91;5.81;5.35;4.12;0.87
66101;SPS30;52883;51.094;5.880;2023-02-04T00:34:58;2.04;1.95;1.49;0.88;7.12;7.10;6.98;6.40;4.90;0.88
66101;SPS30;52883;51.094;5.880;2023-02-04T00:37:25;1.78;1.70;1.31;0.77;6.25;6.24;6.14;5.63;4.32;0.87
66101;SPS30;52883;51.094;5.880;2023-02-04T00:39:51;1.67;1.59;1.22;0.71;5.76;5.74;5.64;5.16;3.94;0.88
66101;SPS30;52883;51.094;5.880;2023-02-04T00:42:17;1.85;1.77;1.35;0.80;6.44;6.43;6.32;5.79;4.43;0.88
66101;SPS30;52883;51.094;5.880;2023-02-04T00:44:44;1.53;1.46;1.13;0.67;5.42;5.40;5.32;4.88;3.75;0.87
66101;SPS30;52883;51.094;5.880;2023-02-04T00:47:09;1.48;1.41;1.08;0.64;5.15;5.13;5.05;4.63;3.54;0.87
66101;SPS30;52883;51.094;5.880;2023-02-04T00:49:35;1.49;1.42;1.08;0.62;5.00;4.98;4.90;4.46;3.37;0.89
66101;SPS30;52883;51.094;5.880;2023-02-04T00:52:01;1.63;1.55;1.18;0.68;5.54;5.53;5.43;4.96;3.76;0.89
66101;SPS30;52883;51.094;5.880;2023-02-04T00:54:26;1.49;1.42;1.09;0.64;5.21;5.19;5.11;4.68;3.59;0.88
66101;SPS30;52883;51.094;5.880;2023-02-04T00:56:52;1.38;1.32;1.00;0.58;4.69;4.68;4.60;4.19;3.18;0.90
66101;SPS30;52883;51.094;5.880;2023-02-04T00:59:18;1.43;1.36;1.03;0.59;4.77;4.75;4.67;4.25;3.21;0.90
66101;SPS30;52883;51.094;5.880;2023-02-04T01:01:43;1.57;1.50;1.15;0.67;5.44;5.42;5.33;4.88;3.72;0.88
66101;SPS30;52883;51.094;5.880;2023-02-04T01:04:09;1.48;1.42;1.08;0.63;5.09;5.07;4.99;4.56;3.47;0.89
66101;SPS30;52883;51.094;5.880;2023-02-04T01:06:35;1.39;1.33;1.01;0.58;4.74;4.72;4.64;4.24;3.22;0.90
66101;SPS30;52883;51.094;5.880;2023-02-04T01:09:01;1.36;1.30;0.98;0.56;4.55;4.53;4.45;4.05;3.06;0.91
66101;SPS30;52883;51.094;5.880;2023-02-04T01:11:28;1.49;1.42;1.07;0.61;4.96;4.95;4.86;4.42;3.33;0.90
66101;SPS30;52883;51.094;5.880;2023-02-04T01:13:55;1.56;1.48;1.13;0.66;5.33;5.32;5.23;4.77;3.63;0.88
66101;SPS30;52883;51.094;5.880;2023-02-04T01:16:20;1.21;1.16;0.89;0.53;4.25;4.24;4.17;3.83;2.93;0.87
66101;SPS30;52883;51.094;5.880;2023-02-04T01:18:46;1.24;1.19;0.92;0.56;4.50;4.49;4.42;4.08;3.16;0.86
66101;SPS30;52883;51.094;5.880;2023-02-04T01:21:12;1.35;1.30;1.02;0.63;5.09;5.08;5.01;4.64;3.63;0.84
66101;SPS30;52883;51.094;5.880;2023-02-04T01:23:37;1.43;1.37;1.07;0.67;5.39;5.38;5.30;4.92;3.85;0.85
66101;SPS30;52883;51.094;5.880;2023-02-04T01:26:03;1.49;1.43;1.11;0.69;5.55;5.54;5.46;5.06;3.95;0.86
66101;SPS30;52883;51.094;5.880;2023-02-04T01:28:30;1.43;1.37;1.07;0.66;5.34;5.32;5.24;4.86;3.79;0.86
66101;SPS30;52883;51.094;5.880;2023-02-04T01:30:57;1.18;1.13;0.88;0.55;4.43;4.42;4.36;4.04;3.16;0.85
66101;SPS30;52883;51.094;5.880;2023-02-04T01:33:22;1.52;1.46;1.15;0.73;5.86;5.84;5.76;5.37;4.23;0.84
66101;SPS30;52883;51.094;5.880;2023-02-04T01:35:49;1.33;1.28;1.01;0.64;5.20;5.19;5.12;4.78;3.77;0.82
66101;SPS30;52883;51.094;5.880;2023-02-04T01:38:14;1.39;1.34;1.06;0.68;5.49;5.48;5.41;5.05;4.00;0.82
66101;SPS30;52883;51.094;5.880;2023-02-04T01:40:40;1.49;1.43;1.12;0.71;5.73;5.72;5.64;5.25;4.13;0.82
66101;SPS30;52883;51.094;5.880;2023-02-04T01:43:07;1.47;1.41;1.11;0.69;5.60;5.59;5.51;5.12;4.02;0.83
66101;SPS30;52883;51.094;5.880;2023-02-04T01:45:34;1.86;1.78;1.39;0.85;6.87;6.85;6.75;6.24;4.85;0.85
66101;SPS30;52883;51.094;5.880;2023-02-04T01:48:00;1.55;1.49;1.15;0.70;5.68;5.67;5.58;5.16;4.00;0.86
66101;SPS30;52883;51.094;5.880;2023-02-04T01:50:28;1.83;1.76;1.38;0.85;6.90;6.88;6.78;6.29;4.92;0.85
66101;SPS30;52883;51.094;5.880;2023-02-04T01:52:54;1.52;1.46;1.14;0.71;5.73;5.72;5.64;5.23;4.09;0.84
66101;SPS30;52883;51.094;5.880;2023-02-04T01:55:21;1.88;1.80;1.41;0.89;7.15;7.13;7.04;6.54;5.13;0.83
66101;SPS30;52883;51.094;5.880;2023-02-04T01:57:51;1.78;1.71;1.35;0.85;6.86;6.84;6.75;6.28;4.94;0.84
66101;SPS30;52883;51.094;5.880;2023-02-04T02:00:23;1.70;1.63;1.29;0.81;6.58;6.56;6.47;6.03;4.75;0.85
66101;SPS30;52883;51.094;5.880;2023-02-04T02:02:53;1.68;1.61;1.26;0.79;6.38;6.36;6.27;5.83;4.57;0.84
66101;SPS30;52883;51.094;5.880;2023-02-04T02:05:22;1.46;1.40;1.11;0.71;5.76;5.75;5.67;5.30;4.19;0.83
66101;SPS30;52883;51.094;5.880;2023-02-04T02:08:00;1.63;1.56;1.25;0.81;6.56;6.55;6.47;6.06;4.83;0.82
66101;SPS30;52883;51.094;5.880;2023-02-04T02:10:29;1.76;1.69;1.34;0.86;6.96;6.95;6.86;6.41;5.08;0.83
66101;SPS30;52883;51.094;5.880;2023-02-04T02:12:56;1.94;1.86;1.47;0.93;7.53;7.51;7.41;6.90;5.44;0.84
66101;SPS30;52883;51.094;5.880;2023-02-04T02:15:23;1.77;1.70;1.36;0.89;7.21;7.19;7.11;6.67;5.32;0.82
66101;SPS30;52883;51.094;5.880;2023-02-04T02:17:50;1.54;1.48;1.20;0.81;6.55;6.53;6.46;6.10;4.91;0.79
66101;SPS30;52883;51.094;5.880;2023-02-04T02:20:19;1.91;1.84;1.50;1.02;8.24;8.23;8.14;7.70;6.23;0.78
66101;SPS30;52883;51.094;5.880;2023-02-04T02:25:43;1.77;1.71;1.44;1.04;8.33;8.31;8.24;7.88;6.48;0.74
66101;SPS30;52883;51.094;5.880;2023-02-04T02:28:11;1.77;1.72;1.43;1.03;8.26;8.25;8.17;7.80;6.41;0.74
66101;SPS30;52883;51.094;5.880;2023-02-04T02:30:40;1.48;1.44;1.21;0.88;7.11;7.10;7.04;6.75;5.57;0.72
66101;SPS30;52883;51.094;5.880;2023-02-04T02:33:10;1.67;1.62;1.38;1.02;8.21;8.19;8.13;7.81;6.47;0.73
66101;SPS30;52883;51.094;5.880;2023-02-04T02:35:39;1.57;1.53;1.31;0.99;7.93;7.92;7.86;7.57;6.31;0.71
66101;SPS30;52883;51.094;5.880;2023-02-04T02:38:08;1.40;1.37;1.20;0.94;7.51;7.50;7.46;7.23;6.08;0.68
66101;SPS30;52883;51.094;5.880;2023-02-04T02:40:35;1.51;1.47;1.31;1.05;8.44;8.43;8.39;8.17;6.92;0.66
66101;SPS30;52883;51.094;5.880;2023-02-04T02:43:02;1.41;1.38;1.24;1.01;8.08;8.07;8.03;7.83;6.66;0.65
66101;SPS30;52883;51.094;5.880;2023-02-04T02:45:30;1.39;1.36;1.23;1.01;8.11;8.10;8.07;7.89;6.72;0.67
66101;SPS30;52883;51.094;5.880;2023-02-04T02:47:58;1.36;1.34;1.21;0.99;7.92;7.91;7.88;7.69;6.55;0.68
66101;SPS30;52883;51.094;5.880;2023-02-04T02:50:28;1.44;1.41;1.29;1.08;8.65;8.64;8.61;8.44;7.22;0.66
66101;SPS30;52883;51.094;5.880;2023-02-04T02:52:58;1.41;1.38;1.26;1.05;8.39;8.39;8.35;8.18;6.99;0.67
66101;SPS30;52883;51.094;5.880;2023-02-04T02:55:25;1.47;1.45;1.33;1.12;8.95;8.94;8.91;8.74;7.49;0.67
66101;SPS30;52883;51.094;5.880;2023-02-04T02:57:54;1.42;1.39;1.27;1.06;8.49;8.48;8.45;8.27;7.08;0.68
66101;SPS30;52883;51.094;5.880;2023-02-04T03:00:21;1.45;1.43;1.30;1.08;8.64;8.64;8.60;8.42;7.20;0.68
66101;SPS30;52883;51.094;5.880;2023-02-04T03:03:13;1.52;1.49;1.36;1.12;8.97;8.97;8.93;8.73;7.45;0.67
66101;SPS30;52883;51.094;5.880;2023-02-04T03:05:42;1.60;1.57;1.41;1.15;9.23;9.22;9.17;8.96;7.62;0.67
66101;SPS30;52883;51.094;5.880;2023-02-04T03:08:12;1.72;1.68;1.50;1.22;9.74;9.73;9.68;9.44;8.01;0.68
66101;SPS30;52883;51.094;5.880;2023-02-04T03:10:40;1.50;1.48;1.34;1.10;8.83;8.82;8.79;8.59;7.33;0.66
66101;SPS30;52883;51.094;5.880;2023-02-04T03:13:07;1.48;1.46;1.33;1.10;8.84;8.83;8.79;8.61;7.35;0.65
66101;SPS30;52883;51.094;5.880;2023-02-04T03:15:35;1.28;1.26;1.15;0.95;7.64;7.63;7.60;7.44;6.36;0.65
66101;SPS30;52883;51.094;5.880;2023-02-04T03:18:02;1.31;1.29;1.19;1.00;8.04;8.04;8.01;7.86;6.74;0.64
66101;SPS30;52883;51.094;5.880;2023-02-04T03:20:28;1.23;1.22;1.13;0.96;7.67;7.66;7.64;7.50;6.45;0.65
66101;SPS30;52883;51.094;5.880;2023-02-04T03:22:57;1.24;1.22;1.13;0.96;7.67;7.66;7.64;7.50;6.45;0.65
66101;SPS30;52883;51.094;5.880;2023-02-04T03:25:23;1.51;1.49;1.38;1.18;9.43;9.42;9.39;9.23;7.93;0.66
66101;SPS30;52883;51.094;5.880;2023-02-04T03:27:51;1.35;1.33;1.22;1.03;8.27;8.26;8.23;8.08;6.92;0.67
66101;SPS30;52883;51.094;5.880;2023-02-04T03:30:20;1.47;1.45;1.33;1.13;9.02;9.01;8.98;8.81;7.55;0.66
66101;SPS30;52883;51.094;5.880;2023-02-04T03:32:47;1.35;1.33;1.22;1.03;8.24;8.23;8.20;8.05;6.90;0.67
66101;SPS30;52883;51.094;5.880;2023-02-04T03:35:12;1.45;1.42;1.30;1.09;8.72;8.71;8.67;8.50;7.27;0.68
66101;SPS30;52883;51.094;5.880;2023-02-04T03:37:38;1.55;1.52;1.38;1.13;9.07;9.06;9.02;8.81;7.51;0.70
66101;SPS30;52883;51.094;5.880;2023-02-04T03:40:04;1.49;1.46;1.33;1.10;8.79;8.78;8.74;8.55;7.30;0.69
66101;SPS30;52883;51.094;5.880;2023-02-04T03:42:30;1.45;1.43;1.31;1.10;8.78;8.77;8.74;8.57;7.33;0.68
66101;SPS30;52883;51.094;5.880;2023-02-04T03:44:55;1.40;1.37;1.26;1.05;8.43;8.43;8.39;8.23;7.04;0.69
66101;SPS30;52883;51.094;5.880;2023-02-04T03:47:21;1.39;1.37;1.24;1.03;8.24;8.24;8.20;8.03;6.85;0.70
66101;SPS30;52883;51.094;5.880;2023-02-04T03:49:47;1.06;1.04;0.96;0.81;6.51;6.51;6.48;6.36;5.46;0.68
66101;SPS30;52883;51.094;5.880;2023-02-04T03:52:12;1.07;1.06;0.98;0.83;6.68;6.68;6.65;6.54;5.62;0.67
66101;SPS30;52883;51.094;5.880;2023-02-04T03:54:38;1.10;1.09;1.01;0.86;6.89;6.88;6.86;6.74;5.80;0.67
66101;SPS30;52883;51.094;5.880;2023-02-04T03:57:03;1.25;1.23;1.15;1.00;7.99;7.98;7.96;7.84;6.76;0.65
66101;SPS30;52883;51.094;5.880;2023-02-04T03:59:29;1.43;1.41;1.33;1.16;9.28;9.28;9.25;9.12;7.89;0.65
66101;SPS30;52883;51.094;5.880;2023-02-04T04:01:54;1.23;1.21;1.12;0.96;7.69;7.69;7.66;7.54;6.48;0.67
66101;SPS30;52883;51.094;5.880;2023-02-04T04:04:20;1.19;1.17;1.08;0.92;7.37;7.36;7.34;7.21;6.19;0.68
66101;SPS30;52883;51.094;5.880;2023-02-04T04:06:46;1.16;1.14;1.05;0.89;7.10;7.09;7.07;6.94;5.95;0.68
66101;SPS30;52883;51.094;5.880;2023-02-04T04:09:11;1.11;1.09;1.01;0.85;6.80;6.80;6.77;6.65;5.70;0.67
66101;SPS30;52883;51.094;5.880;2023-02-04T04:11:37;1.04;1.03;0.95;0.81;6.47;6.47;6.44;6.33;5.44;0.67
66101;SPS30;52883;51.094;5.880;2023-02-04T04:14:02;1.12;1.10;1.02;0.87;6.94;6.93;6.91;6.79;5.83;0.68
66101;SPS30;52883;51.094;5.880;2023-02-04T04:16:28;1.17;1.16;1.07;0.92;7.35;7.35;7.33;7.20;6.20;0.68
66101;SPS30;52883;51.094;5.880;2023-02-04T04:18:54;1.25;1.23;1.14;0.97;7.80;7.79;7.77;7.63;6.56;0.68
66101;SPS30;52883;51.094;5.880;2023-02-04T04:21:20;1.37;1.35;1.25;1.07;8.59;8.58;8.55;8.41;7.24;0.66
66101;SPS30;52883;51.094;5.880;2023-02-04T04:23:46;1.59;1.57;1.47;1.27;10.14;10.13;10.10;9.95;8.58;0.65
66101;SPS30;52883;51.094;5.880;2023-02-04T04:26:11;1.35;1.34;1.27;1.12;8.98;8.98;8.96;8.85;7.67;0.62
66101;SPS30;52883;51.094;5.880;2023-02-04T04:28:37;1.46;1.44;1.36;1.20;9.57;9.56;9.54;9.41;8.14;0.63
66101;SPS30;52883;51.094;5.880;2023-02-04T04:31:03;1.53;1.51;1.43;1.25;9.98;9.98;9.95;9.82;8.49;0.64
66101;SPS30;52883;51.094;5.880;2023-02-04T04:33:28;1.55;1.53;1.45;1.28;10.20;10.20;10.17;10.04;8.69;0.63
66101;SPS30;52883;51.094;5.880;2023-02-04T04:35:54;1.57;1.55;1.48;1.30;10.43;10.42;10.40;10.27;8.90;0.63
66101;SPS30;52883;51.094;5.880;2023-02-04T04:38:20;1.70;1.68;1.59;1.40;11.22;11.21;11.18;11.04;9.56;0.64
66101;SPS30;52883;51.094;5.880;2023-02-04T04:40:45;1.59;1.58;1.49;1.31;10.45;10.45;10.42;10.29;8.90;0.65
66101;SPS30;52883;51.094;5.880;2023-02-04T04:43:11;1.62;1.60;1.48;1.27;10.20;10.20;10.16;10.00;8.61;0.68
66101;SPS30;52883;51.094;5.880;2023-02-04T04:45:36;1.70;1.67;1.54;1.31;10.47;10.47;10.43;10.24;8.79;0.70
66101;SPS30;52883;51.094;5.880;2023-02-04T04:48:02;1.66;1.64;1.52;1.30;10.37;10.36;10.33;10.15;8.72;0.68
66101;SPS30;52883;51.094;5.880;2023-02-04T04:50:28;1.66;1.64;1.54;1.33;10.65;10.64;10.61;10.46;9.02;0.65
66101;SPS30;52883;51.094;5.880;2023-02-04T04:52:54;1.54;1.52;1.40;1.20;9.60;9.60;9.56;9.40;8.08;0.66
66101;SPS30;52883;51.094;5.880;2023-02-04T04:55:19;1.61;1.58;1.46;1.24;9.91;9.90;9.87;9.69;8.32;0.67
66101;SPS30;52883;51.094;5.880;2023-02-04T04:57:45;1.56;1.54;1.43;1.22;9.77;9.77;9.74;9.57;8.24;0.66
66101;SPS30;52883;51.094;5.880;2023-02-04T05:00:13;1.53;1.51;1.41;1.22;9.74;9.73;9.71;9.56;8.24;0.64
66101;SPS30;52883;51.094;5.880;2023-02-04T05:02:41;1.63;1.61;1.51;1.31;10.45;10.45;10.42;10.26;8.85;0.64
66101;SPS30;52883;51.094;5.880;2023-02-04T05:05:08;1.68;1.65;1.54;1.31;10.52;10.51;10.48;10.31;8.87;0.65
66101;SPS30;52883;51.094;5.880;2023-02-04T05:07:35;1.81;1.78;1.64;1.40;11.18;11.17;11.13;10.93;9.39;0.66
66101;SPS30;52883;51.094;5.880;2023-02-04T05:10:01;1.98;1.95;1.78;1.49;11.94;11.93;11.88;11.64;9.96;0.67
66101;SPS30;52883;51.094;5.880;2023-02-04T05:12:27;1.97;1.93;1.74;1.42;11.42;11.41;11.35;11.09;9.44;0.69
66101;SPS30;52883;51.094;5.880;2023-02-04T05:14:53;2.31;2.26;2.06;1.70;13.64;13.63;13.57;13.27;11.33;0.69
66101;SPS30;52883;51.094;5.880;2023-02-04T05:17:18;2.32;2.29;2.10;1.78;14.23;14.22;14.17;13.91;11.93;0.69
66101;SPS30;52883;51.094;5.880;2023-02-04T05:19:44;2.55;2.51;2.30;1.94;15.56;15.55;15.49;15.20;13.03;0.69
66101;SPS30;52883;51.094;5.880;2023-02-04T05:22:10;2.59;2.54;2.33;1.95;15.63;15.62;15.56;15.25;13.06;0.70
66101;SPS30;52883;51.094;5.880;2023-02-04T05:24:35;2.77;2.72;2.47;2.05;16.39;16.38;16.31;15.95;13.62;0.71
66101;SPS30;52883;51.094;5.880;2023-02-04T05:27:01;2.68;2.64;2.43;2.05;16.41;16.39;16.33;16.03;13.75;0.69
66101;SPS30;52883;51.094;5.880;2023-02-04T05:29:27;2.92;2.88;2.65;2.24;17.92;17.90;17.84;17.51;15.01;0.69
66101;SPS30;52883;51.094;5.880;2023-02-04T05:31:52;2.93;2.87;2.59;2.11;16.93;16.91;16.84;16.44;13.98;0.71
66101;SPS30;52883;51.094;5.880;2023-02-04T05:34:18;3.11;3.05;2.76;2.26;18.08;18.06;17.98;17.56;14.95;0.69
66101;SPS30;52883;51.094;5.880;2023-02-04T05:36:43;3.36;3.29;2.93;2.34;18.77;18.75;18.65;18.15;15.37;0.72
66101;SPS30;52883;51.094;5.880;2023-02-04T05:39:09;3.30;3.23;2.88;2.31;18.52;18.50;18.41;17.93;15.19;0.71
66101;SPS30;52883;51.094;5.880;2023-02-04T05:41:35;3.59;3.51;3.08;2.41;19.34;19.31;19.20;18.62;15.67;0.73
66101;SPS30;52883;51.094;5.880;2023-02-04T05:44:00;3.51;3.41;2.96;2.27;18.26;18.24;18.12;17.51;14.67;0.74
66101;SPS30;52883;51.094;5.880;2023-02-04T05:46:27;3.83;3.74;3.26;2.53;20.27;20.25;20.12;19.48;16.35;0.73
66101;SPS30;52883;51.094;5.880;2023-02-04T05:48:52;3.82;3.72;3.20;2.41;19.39;19.37;19.23;18.53;15.45;0.76
66101;SPS30;52883;51.094;5.880;2023-02-04T05:51:18;3.92;3.82;3.31;2.53;20.27;20.25;20.11;19.42;16.24;0.75
66101;SPS30;52883;51.094;5.880;2023-02-04T05:53:43;4.28;4.17;3.64;2.83;22.70;22.68;22.53;21.82;18.33;0.75
66101;SPS30;52883;51.094;5.880;2023-02-04T05:56:09;4.42;4.31;3.72;2.83;22.76;22.73;22.57;21.79;18.21;0.76
66101;SPS30;52883;51.094;5.880;2023-02-04T05:58:34;4.30;4.19;3.63;2.78;22.36;22.33;22.18;21.43;17.95;0.75
66101;SPS30;52883;51.094;5.880;2023-02-04T06:01:00;4.29;4.18;3.63;2.79;22.40;22.38;22.23;21.49;18.00;0.76
66101;SPS30;52883;51.094;5.880;2023-02-04T06:03:28;4.11;4.00;3.47;2.67;21.42;21.39;21.25;20.54;17.21;0.76
66101;SPS30;52883;51.094;5.880;2023-02-04T06:05:55;4.64;4.51;3.85;2.87;23.09;23.05;22.88;22.01;18.29;0.76
66101;SPS30;52883;51.094;5.880;2023-02-04T06:08:21;4.38;4.25;3.63;2.70;21.70;21.67;21.50;20.67;17.17;0.76
66101;SPS30;52883;51.094;5.880;2023-02-04T06:10:47;4.60;4.47;3.84;2.89;23.20;23.17;23.00;22.15;18.45;0.76
66101;SPS30;52883;51.094;5.880;2023-02-04T06:13:14;4.22;4.11;3.53;2.67;21.45;21.42;21.27;20.51;17.10;0.75
66101;SPS30;52883;51.094;5.880;2023-02-04T06:15:40;4.52;4.40;3.76;2.81;22.58;22.55;22.38;21.53;17.90;0.76
66101;SPS30;52883;51.094;5.880;2023-02-04T06:18:05;4.23;4.12;3.54;2.68;21.51;21.48;21.33;20.56;17.15;0.76
66101;SPS30;52883;51.094;5.880;2023-02-04T06:20:32;4.32;4.21;3.62;2.74;21.97;21.94;21.79;21.00;17.52;0.77
66101;SPS30;52883;51.094;5.880;2023-02-04T06:22:57;4.45;4.33;3.73;2.82;22.65;22.62;22.46;21.66;18.07;0.78
66101;SPS30;52883;51.094;5.880;2023-02-04T06:25:23;4.53;4.40;3.76;2.81;22.60;22.57;22.40;21.55;17.92;0.79
66101;SPS30;52883;51.094;5.880;2023-02-04T06:27:49;4.15;4.04;3.48;2.63;21.12;21.09;20.94;20.19;16.84;0.78
66101;SPS30;52883;51.094;5.880;2023-02-04T06:30:15;4.71;4.58;3.93;2.95;23.72;23.68;23.51;22.64;18.86;0.78
66101;SPS30;52883;51.094;5.880;2023-02-04T06:32:41;4.38;4.25;3.63;2.71;21.81;21.78;21.61;20.79;17.28;0.76
66101;SPS30;52883;51.094;5.880;2023-02-04T06:35:07;4.40;4.27;3.62;2.66;21.37;21.34;21.17;20.30;16.80;0.78
66101;SPS30;52883;51.094;5.880;2023-02-04T06:37:34;4.72;4.58;3.91;2.92;23.46;23.43;23.25;22.36;18.58;0.78
66101;SPS30;52883;51.094;5.880;2023-02-04T06:39:59;4.66;4.53;3.89;2.93;23.52;23.48;23.31;22.46;18.71;0.77
66101;SPS30;52883;51.094;5.880;2023-02-04T06:42:25;5.14;4.99;4.29;3.23;25.98;25.95;25.76;24.82;20.69;0.76
66101;SPS30;52883;51.094;5.880;2023-02-04T06:44:51;4.80;4.67;4.01;3.01;24.21;24.18;24.00;23.12;19.26;0.77
66101;SPS30;52883;51.094;5.880;2023-02-04T06:47:17;4.96;4.82;4.15;3.13;25.17;25.14;24.96;24.06;20.06;0.76
66101;SPS30;52883;51.094;5.880;2023-02-04T06:49:43;4.66;4.54;3.90;2.95;23.72;23.69;23.52;22.67;18.91;0.76
66101;SPS30;52883;51.094;5.880;2023-02-04T06:52:10;4.65;4.53;3.89;2.94;23.62;23.59;23.42;22.57;18.82;0.75
66101;SPS30;52883;51.094;5.880;2023-02-04T06:54:36;4.99;4.84;4.13;3.06;24.60;24.57;24.38;23.42;19.44;0.76
66101;SPS30;52883;51.094;5.880;2023-02-04T06:57:02;4.43;4.32;3.74;2.86;22.94;22.91;22.76;21.98;18.39;0.74
66101;SPS30;52883;51.094;5.880;2023-02-04T06:59:32;5.08;4.93;4.19;3.11;24.99;24.95;24.76;23.78;19.73;0.76
66101;SPS30;52883;51.094;5.880;2023-02-04T07:01:58;4.84;4.70;4.03;3.03;24.34;24.30;24.12;23.23;19.34;0.76
66101;SPS30;52883;51.094;5.880;2023-02-04T07:04:24;4.96;4.83;4.16;3.15;25.30;25.27;25.09;24.20;20.19;0.76
66101;SPS30;52883;51.094;5.880;2023-02-04T07:06:49;4.48;4.37;3.82;2.98;23.89;23.86;23.72;22.98;19.32;0.75
66101;SPS30;52883;51.094;5.880;2023-02-04T07:09:15;4.75;4.63;4.03;3.12;25.00;24.97;24.81;24.01;20.14;0.77
66101;SPS30;52883;51.094;5.880;2023-02-04T07:11:40;4.99;4.87;4.23;3.25;26.08;26.05;25.88;25.02;20.96;0.76
66101;SPS30;52883;51.094;5.880;2023-02-04T07:14:06;4.72;4.59;3.98;3.04;24.43;24.40;24.24;23.41;19.59;0.77
66101;SPS30;52883;51.094;5.880;2023-02-04T07:16:32;5.09;4.95;4.22;3.15;25.31;25.28;25.09;24.12;20.05;0.78
66101;SPS30;52883;51.094;5.880;2023-02-04T07:18:57;5.18;5.04;4.36;3.32;26.69;26.66;26.48;25.56;21.37;0.77
66101;SPS30;52883;51.094;5.880;2023-02-04T07:21:23;4.87;4.74;4.08;3.09;24.84;24.81;24.64;23.76;19.83;0.78
66101;SPS30;52883;51.094;5.880;2023-02-04T07:23:48;4.79;4.66;4.03;3.07;24.64;24.61;24.44;23.59;19.72;0.78
66101;SPS30;52883;51.094;5.880;2023-02-04T07:26:14;5.20;5.06;4.39;3.37;27.03;27.00;26.82;25.92;21.70;0.78
66101;SPS30;52883;51.094;5.880;2023-02-04T07:28:40;5.02;4.89;4.23;3.24;26.00;25.97;25.80;24.91;20.85;0.77
66101;SPS30;52883;51.094;5.880;2023-02-04T07:31:06;4.68;4.57;3.98;3.08;24.76;24.73;24.57;23.78;19.97;0.75
66101;SPS30;52883;51.094;5.880;2023-02-04T07:33:32;5.29;5.16;4.51;3.50;28.11;28.07;27.90;27.02;22.70;0.76
66101;SPS30;52883;51.094;5.880;2023-02-04T07:35:57;5.19;5.06;4.38;3.36;26.97;26.93;26.75;25.85;21.64;0.76
66101;SPS30;52883;51.094;5.880;2023-02-04T07:38:23;5.33;5.18;4.46;3.38;27.12;27.08;26.89;25.93;21.63;0.78
66101;SPS30;52883;51.094;5.880;2023-02-04T07:40:49;5.01;4.88;4.27;3.32;26.64;26.61;26.44;25.61;21.52;0.76
66101;SPS30;52883;51.094;5.880;2023-02-04T07:43:14;5.23;5.12;4.55;3.63;29.13;29.10;28.94;28.16;23.83;0.74
66101;SPS30;52883;51.094;5.880;2023-02-04T07:45:40;4.68;4.58;4.05;3.22;25.83;25.80;25.66;24.94;21.08;0.74
66101;SPS30;52883;51.094;5.880;2023-02-04T07:48:05;5.24;5.11;4.47;3.47;27.84;27.81;27.64;26.76;22.49;0.77
66101;SPS30;52883;51.094;5.880;2023-02-04T07:50:31;5.35;5.22;4.57;3.56;28.57;28.53;28.36;27.47;23.10;0.77
66101;SPS30;52883;51.094;5.880;2023-02-04T07:52:57;5.09;4.96;4.35;3.41;27.32;27.29;27.13;26.30;22.14;0.77
66101;SPS30;52883;51.094;5.880;2023-02-04T07:55:22;5.56;5.42;4.74;3.68;29.54;29.51;29.32;28.40;23.86;0.76
66101;SPS30;52883;51.094;5.880;2023-02-04T07:57:48;5.60;5.45;4.72;3.61;29.02;28.98;28.79;27.81;23.27;0.78
66101;SPS30;52883;51.094;5.880;2023-02-04T08:00:14;5.46;5.31;4.54;3.39;27.23;27.19;26.99;25.96;21.58;0.78
66101;SPS30;52883;51.094;5.880;2023-02-04T08:02:40;5.68;5.52;4.72;3.54;28.40;28.36;28.15;27.09;22.53;0.78
66101;SPS30;52883;51.094;5.880;2023-02-04T08:05:06;5.62;5.46;4.64;3.44;27.65;27.60;27.39;26.31;21.82;0.79
66101;SPS30;52883;51.094;5.880;2023-02-04T08:07:32;5.45;5.30;4.52;3.37;27.10;27.07;26.86;25.83;21.46;0.79
66101;SPS30;52883;51.094;5.880;2023-02-04T08:09:58;5.81;5.64;4.81;3.57;28.69;28.65;28.43;27.32;22.68;0.79
66101;SPS30;52883;51.094;5.880;2023-02-04T08:12:23;5.67;5.51;4.66;3.43;27.55;27.51;27.29;26.18;21.66;0.80
66101;SPS30;52883;51.094;5.880;2023-02-04T08:14:49;5.39;5.25;4.50;3.39;27.24;27.21;27.01;26.02;21.68;0.78
66101;SPS30;52883;51.094;5.880;2023-02-04T08:17:15;4.97;4.87;4.32;3.45;27.64;27.61;27.47;26.72;22.60;0.73
66101;SPS30;52883;51.094;5.880;2023-02-04T08:19:40;4.74;4.64;4.16;3.36;26.97;26.95;26.81;26.14;22.20;0.73
66101;SPS30;52883;51.094;5.880;2023-02-04T08:22:06;4.82;4.72;4.20;3.37;27.02;26.99;26.85;26.14;22.14;0.73
66101;SPS30;52883;51.094;5.880;2023-02-04T08:24:31;4.99;4.87;4.31;3.41;27.37;27.34;27.18;26.41;22.30;0.74
66101;SPS30;52883;51.094;5.880;2023-02-04T08:26:57;5.43;5.29;4.61;3.55;28.52;28.48;28.30;27.37;22.95;0.77
66101;SPS30;52883;51.094;5.880;2023-02-04T08:29:23;5.77;5.60;4.76;3.52;28.29;28.25;28.03;26.92;22.31;0.80
66101;SPS30;52883;51.094;5.880;2023-02-04T08:31:50;5.90;5.72;4.83;3.52;28.33;28.29;28.05;26.87;22.19;0.79
66101;SPS30;52883;51.094;5.880;2023-02-04T08:34:16;5.45;5.30;4.53;3.40;27.28;27.24;27.04;26.02;21.64;0.76
66101;SPS30;52883;51.094;5.880;2023-02-04T08:36:41;5.14;5.00;4.27;3.19;25.60;25.57;25.37;24.40;20.28;0.79
66101;SPS30;52883;51.094;5.880;2023-02-04T08:39:09;5.38;5.23;4.47;3.35;26.92;26.88;26.69;25.68;21.37;0.79
66101;SPS30;52883;51.094;5.880;2023-02-04T08:41:36;5.52;5.35;4.53;3.32;26.66;26.62;26.41;25.31;20.93;0.81
66101;SPS30;52883;51.094;5.880;2023-02-04T08:44:02;5.66;5.49;4.67;3.45;27.70;27.66;27.44;26.34;21.83;0.79
66101;SPS30;52883;51.094;5.880;2023-02-04T08:46:28;5.44;5.30;4.61;3.55;28.47;28.43;28.25;27.31;22.89;0.75
66101;SPS30;52883;51.094;5.880;2023-02-04T08:48:54;5.37;5.24;4.56;3.51;28.21;28.17;27.99;27.07;22.71;0.76
66101;SPS30;52883;51.094;5.880;2023-02-04T08:51:19;5.26;5.13;4.50;3.51;28.13;28.09;27.92;27.06;22.75;0.76
66101;SPS30;52883;51.094;5.880;2023-02-04T08:53:45;4.87;4.75;4.14;3.22;25.80;25.77;25.61;24.79;20.82;0.75
66101;SPS30;52883;51.094;5.880;2023-02-04T08:56:11;5.09;4.97;4.34;3.38;27.11;27.08;26.91;26.06;21.91;0.76
66101;SPS30;52883;51.094;5.880;2023-02-04T08:58:41;5.62;5.47;4.73;3.60;28.94;28.90;28.71;27.71;23.17;0.78
66101;SPS30;52883;51.094;5.880;2023-02-04T09:01:07;5.56;5.42;4.69;3.57;28.69;28.66;28.46;27.48;22.97;0.77
66101;SPS30;52883;51.094;5.880;2023-02-04T09:03:35;5.48;5.34;4.63;3.55;28.47;28.43;28.25;27.29;22.85;0.76
66101;SPS30;52883;51.094;5.880;2023-02-04T09:06:02;5.48;5.34;4.66;3.60;28.92;28.89;28.71;27.78;23.32;0.75
66101;SPS30;52883;51.094;5.880;2023-02-04T09:08:28;5.65;5.52;4.85;3.82;30.63;30.59;30.42;29.51;24.88;0.74
66101;SPS30;52883;51.094;5.880;2023-02-04T09:10:54;5.12;5.02;4.53;3.70;29.65;29.62;29.49;28.79;24.50;0.71
66101;SPS30;52883;51.094;5.880;2023-02-04T09:13:19;4.81;4.73;4.30;3.56;28.53;28.50;28.38;27.77;23.72;0.70
66101;SPS30;52883;51.094;5.880;2023-02-04T09:15:45;5.24;5.14;4.62;3.76;30.16;30.14;29.99;29.27;24.89;0.71
66101;SPS30;52883;51.094;5.880;2023-02-04T09:18:11;5.49;5.37;4.75;3.77;30.22;30.19;30.02;29.18;24.65;0.74
66101;SPS30;52883;51.094;5.880;2023-02-04T09:20:46;5.58;5.45;4.83;3.84;30.80;30.76;30.60;29.74;25.14;0.75
66101;SPS30;52883;51.094;5.880;2023-02-04T09:23:13;5.50;5.37;4.72;3.71;29.76;29.73;29.55;28.67;24.16;0.76
66101;SPS30;52883;51.094;5.880;2023-02-04T09:25:40;5.72;5.58;4.88;3.80;30.46;30.43;30.24;29.30;24.63;0.76